createdAt,value
2023-04-15T00:01:22.619Z,8.20
2023-04-15T00:03:56.672Z,8.20
2023-04-15T00:06:26.331Z,8.20
2023-04-15T00:08:57.510Z,8.20
2023-04-15T00:11:26.925Z,8.20
2023-04-15T00:13:56.457Z,8.20
2023-04-15T00:16:26.571Z,8.20
2023-04-15T00:18:56.807Z,8.20
2023-04-15T00:21:27.621Z,8.20
2023-04-15T00:23:57.346Z,8.20
2023-04-15T00:26:27.152Z,8.20
2023-04-15T00:28:58.156Z,8.20
2023-04-15T00:31:28.306Z,8.20
2023-04-15T00:33:58.381Z,8.20
2023-04-15T00:36:27.890Z,8.20
2023-04-15T00:38:57.903Z,8.20
2023-04-15T00:41:27.548Z,8.20
2023-04-15T00:43:57.060Z,8.20
2023-04-15T00:46:29.597Z,8.10
2023-04-15T00:48:59.198Z,8.10
2023-04-15T00:51:31.045Z,8.10
2023-04-15T00:54:02.013Z,8.10
2023-04-15T00:56:32.032Z,8.10
2023-04-15T00:59:02.454Z,8.10
2023-04-15T01:01:32.814Z,8.10
2023-04-15T01:04:02.326Z,8.00
2023-04-15T01:06:32.690Z,8.00
2023-04-15T01:09:01.732Z,8.00
2023-04-15T01:11:34.343Z,8.00
2023-04-15T01:14:04.461Z,7.90
2023-04-15T01:16:33.973Z,7.90
2023-04-15T01:19:05.161Z,7.90
2023-04-15T01:21:36.128Z,7.90
2023-04-15T01:24:10.289Z,7.90
2023-04-15T01:26:41.039Z,7.90
2023-04-15T01:29:10.550Z,7.90
2023-04-15T01:31:40.122Z,7.90
2023-04-15T01:34:09.631Z,7.80
2023-04-15T01:36:39.008Z,7.80
2023-04-15T01:39:08.598Z,7.80
2023-04-15T01:41:38.020Z,7.80
2023-04-15T01:44:08.091Z,7.80
2023-04-15T01:46:38.764Z,7.80
2023-04-15T01:49:08.386Z,7.80
2023-04-15T01:51:37.944Z,7.80
2023-04-15T01:54:08.303Z,7.80
2023-04-15T01:56:38.856Z,7.80
2023-04-15T01:59:08.539Z,7.80
2023-04-15T02:01:38.213Z,7.80
2023-04-15T02:04:08.038Z,7.80
2023-04-15T02:06:37.593Z,7.80
2023-04-15T02:09:06.941Z,7.70
2023-04-15T02:11:37.233Z,7.80
2023-04-15T02:14:06.725Z,7.80
2023-04-15T02:16:36.606Z,7.80
2023-04-15T02:19:06.025Z,7.70
2023-04-15T02:21:35.504Z,7.70
2023-04-15T02:24:06.565Z,7.70
2023-04-15T02:26:36.223Z,7.70
2023-04-15T02:29:05.728Z,7.70
2023-04-15T02:31:37.058Z,7.70
2023-04-15T02:34:06.765Z,7.70
2023-04-15T02:36:36.266Z,7.70
2023-04-15T02:39:07.666Z,7.70
2023-04-15T02:41:37.163Z,7.70
2023-04-15T02:44:09.769Z,7.80
2023-04-15T02:46:41.130Z,7.70
2023-04-15T02:49:10.915Z,7.70
2023-04-15T02:51:40.665Z,7.70
2023-04-15T02:54:10.412Z,7.80
2023-04-15T02:56:39.851Z,7.70
2023-04-15T02:59:09.327Z,7.70
2023-04-15T03:01:39.011Z,7.70
2023-04-15T03:04:09.122Z,7.70
2023-04-15T03:06:38.835Z,7.70
2023-04-15T03:09:09.912Z,7.70
2023-04-15T03:11:42.032Z,7.70
2023-04-15T03:14:11.816Z,7.70
2023-04-15T03:16:43.006Z,7.70
2023-04-15T03:19:13.147Z,7.70
2023-04-15T03:21:43.443Z,7.70
2023-04-15T03:24:12.820Z,7.70
2023-04-15T03:26:42.306Z,7.70
2023-04-15T03:29:13.460Z,7.70
2023-04-15T03:31:43.391Z,7.70
2023-04-15T03:34:12.585Z,7.70
2023-04-15T03:36:42.015Z,7.70
2023-04-15T03:39:11.838Z,7.70
2023-04-15T03:41:41.293Z,7.70
2023-04-15T03:44:10.744Z,7.70
2023-04-15T03:46:40.242Z,7.70
2023-04-15T03:49:09.763Z,7.70
2023-04-15T03:51:39.188Z,7.70
2023-04-15T03:54:08.670Z,7.70
2023-04-15T03:56:38.111Z,7.70
2023-04-15T03:59:07.484Z,7.70
2023-04-15T04:01:36.993Z,7.70
2023-04-15T04:04:06.628Z,7.70
2023-04-15T04:06:36.282Z,7.70
2023-04-15T04:09:05.720Z,7.70
2023-04-15T04:11:35.669Z,7.70
2023-04-15T04:14:05.080Z,7.70
2023-04-15T04:16:34.588Z,7.80
2023-04-15T04:19:04.112Z,7.80
2023-04-15T04:21:34.241Z,7.80
2023-04-15T04:24:07.180Z,7.80
2023-04-15T04:26:36.652Z,7.80
2023-04-15T04:29:06.453Z,7.80
2023-04-15T04:31:36.511Z,7.80
2023-04-15T04:34:06.100Z,7.80
2023-04-15T04:36:35.559Z,7.80
2023-04-15T04:39:05.003Z,7.80
2023-04-15T04:41:34.414Z,7.80
2023-04-15T04:44:03.947Z,7.80
2023-04-15T04:46:33.443Z,7.90
2023-04-15T04:49:03.068Z,7.90
2023-04-15T04:51:33.377Z,7.90
2023-04-15T04:54:03.845Z,7.90
2023-04-15T04:56:34.597Z,7.90
2023-04-15T04:59:03.958Z,7.90
2023-04-15T05:01:33.896Z,7.90
2023-04-15T05:04:05.286Z,7.90
2023-04-15T05:06:36.688Z,7.90
2023-04-15T05:09:06.227Z,7.90
2023-04-15T05:11:35.643Z,8.00
2023-04-15T05:14:05.135Z,8.00
2023-04-15T05:16:34.609Z,8.00
2023-04-15T05:19:04.041Z,8.00
2023-04-15T05:21:33.727Z,8.00
2023-04-15T05:24:03.212Z,8.00
2023-04-15T05:26:32.654Z,8.00
2023-04-15T05:29:02.343Z,8.00
2023-04-15T05:31:32.303Z,8.10
2023-04-15T05:34:01.798Z,8.10
2023-04-15T05:36:33.515Z,8.10
2023-04-15T05:39:03.150Z,8.10
2023-04-15T05:41:32.761Z,8.10
2023-04-15T05:44:02.245Z,8.10
2023-04-15T05:46:31.784Z,8.20
2023-04-15T05:49:01.455Z,8.20
2023-04-15T05:51:31.446Z,8.30
2023-04-15T05:54:01.280Z,8.30
2023-04-15T05:56:30.728Z,8.30
2023-04-15T05:59:00.329Z,8.40
2023-04-15T06:01:30.541Z,8.40
2023-04-15T06:04:00.373Z,8.50
2023-04-15T06:06:29.798Z,8.50
2023-04-15T06:08:59.779Z,8.60
2023-04-15T06:11:29.352Z,8.60
2023-04-15T06:13:58.851Z,8.70
2023-04-15T06:16:28.349Z,8.80
2023-04-15T06:18:57.739Z,8.80
2023-04-15T06:21:27.234Z,8.90
2023-04-15T06:23:56.854Z,9.00
2023-04-15T06:26:26.461Z,9.10
2023-04-15T06:28:56.359Z,9.30
2023-04-15T06:31:25.864Z,9.50
2023-04-15T06:33:55.395Z,9.70
2023-04-15T06:36:24.833Z,9.90
2023-04-15T06:38:54.279Z,10.00
2023-04-15T06:41:23.787Z,10.10
2023-04-15T06:43:53.318Z,10.30
2023-04-15T06:46:23.042Z,10.50
2023-04-15T06:48:52.528Z,10.70
2023-04-15T06:51:21.959Z,10.70
2023-04-15T06:53:51.368Z,10.80
2023-04-15T06:56:20.742Z,10.90
2023-04-15T06:58:50.518Z,10.90
2023-04-15T07:01:23.392Z,11.00
2023-04-15T07:03:52.849Z,11.10
2023-04-15T07:06:22.191Z,11.20
2023-04-15T07:08:51.651Z,11.20
2023-04-15T07:11:21.342Z,11.30
2023-04-15T07:13:50.876Z,11.30
2023-04-15T07:16:20.314Z,11.30
2023-04-15T07:18:49.742Z,11.40
2023-04-15T07:21:19.167Z,11.40
2023-04-15T07:23:48.676Z,11.50
2023-04-15T07:26:18.124Z,11.50
2023-04-15T07:28:47.609Z,11.60
2023-04-15T07:31:17.410Z,11.50
2023-04-15T07:33:46.868Z,11.60
2023-04-15T07:36:16.247Z,11.60
2023-04-15T07:38:45.689Z,11.60
2023-04-15T07:41:15.852Z,11.60
2023-04-15T07:43:45.330Z,11.60
2023-04-15T07:46:14.849Z,11.60
2023-04-15T07:48:44.399Z,11.60
2023-04-15T07:51:13.886Z,11.70
2023-04-15T07:53:43.308Z,11.70
2023-04-15T07:56:13.013Z,11.80
2023-04-15T07:58:42.555Z,11.90
2023-04-15T08:01:12.589Z,11.90
2023-04-15T08:03:42.217Z,12.00
2023-04-15T08:06:12.270Z,12.20
2023-04-15T08:08:41.792Z,12.20
2023-04-15T08:11:11.486Z,12.40
2023-04-15T08:13:40.911Z,12.40
2023-04-15T08:16:27.866Z,12.60
2023-04-15T08:18:58.199Z,12.90
2023-04-15T08:21:30.117Z,13.20
2023-04-15T08:24:00.203Z,13.50
2023-04-15T08:26:29.686Z,13.70
2023-04-15T08:28:59.327Z,13.90
2023-04-15T08:31:30.981Z,14.10
2023-04-15T08:34:02.802Z,14.10
2023-04-15T08:36:32.650Z,14.20
2023-04-15T08:39:04.046Z,14.30
2023-04-15T08:41:41.695Z,14.50
2023-04-15T08:44:12.068Z,14.40
2023-04-15T08:46:42.393Z,14.40
2023-04-15T08:49:13.374Z,14.30
2023-04-15T08:51:43.677Z,14.30
2023-04-15T08:54:12.466Z,14.20
2023-04-15T08:56:42.413Z,14.10
2023-04-15T08:59:12.448Z,13.90
2023-04-15T09:01:42.097Z,13.90
2023-04-15T09:04:12.599Z,13.90
2023-04-15T09:06:42.242Z,13.80
2023-04-15T09:09:14.514Z,13.80
2023-04-15T09:11:44.120Z,13.80
2023-04-15T09:14:13.717Z,13.80
2023-04-15T09:17:03.807Z,13.90
2023-04-15T09:19:34.548Z,14.00
2023-04-15T09:22:04.283Z,14.10
2023-04-15T09:24:42.344Z,14.10
2023-04-15T09:27:11.778Z,14.10
2023-04-15T09:29:43.027Z,14.10
2023-04-15T09:32:15.647Z,14.00
2023-04-15T09:34:45.915Z,14.00
2023-04-15T09:37:28.968Z,14.00
2023-04-15T09:39:52.334Z,14.00
2023-04-15T09:42:23.469Z,13.90
2023-04-15T09:44:53.481Z,13.80
2023-04-15T09:47:33.731Z,13.80
2023-04-15T09:50:03.708Z,13.80
2023-04-15T09:52:33.389Z,13.70
2023-04-15T09:55:02.881Z,13.60
2023-04-15T09:57:41.251Z,13.50
2023-04-15T10:00:11.241Z,13.50
2023-04-15T10:02:45.612Z,13.50
2023-04-15T10:05:17.970Z,13.40
2023-04-15T10:07:48.145Z,13.40
2023-04-15T10:10:18.272Z,13.40
2023-04-15T10:12:47.934Z,13.40
2023-04-15T10:15:19.248Z,13.40
2023-04-15T10:17:51.408Z,13.40
2023-04-15T10:20:21.680Z,13.30
2023-04-15T10:22:51.329Z,13.30
2023-04-15T10:25:21.426Z,13.20
2023-04-15T10:27:52.875Z,13.20
2023-04-15T10:30:22.372Z,13.10
2023-04-15T10:32:52.392Z,13.10
2023-04-15T10:35:23.036Z,13.00
2023-04-15T10:37:52.595Z,13.00
2023-04-15T10:40:32.532Z,13.00
2023-04-15T10:43:05.366Z,13.00
2023-04-15T10:45:39.646Z,13.00
2023-04-15T10:48:09.476Z,13.10
2023-04-15T10:50:39.367Z,13.10
2023-04-15T10:53:11.597Z,13.10
2023-04-15T10:55:41.213Z,13.30
2023-04-15T10:58:12.349Z,13.40
2023-04-15T11:00:41.951Z,13.40
2023-04-15T11:03:12.113Z,13.50
2023-04-15T11:05:53.095Z,13.50
2023-04-15T11:08:25.606Z,13.50
2023-04-15T11:10:55.412Z,13.40
2023-04-15T11:13:27.142Z,13.50
2023-04-15T11:16:01.432Z,13.40
2023-04-15T11:18:32.950Z,13.40
2023-04-15T11:21:04.891Z,13.40
2023-04-15T11:23:40.103Z,13.50
2023-04-15T11:26:12.210Z,13.40
2023-04-15T11:28:44.926Z,13.40
2023-04-15T11:31:20.196Z,13.30
2023-04-15T11:33:59.086Z,13.40
2023-04-15T11:36:30.054Z,13.40
2023-04-15T11:39:00.752Z,13.40
2023-04-15T11:41:30.497Z,13.40
2023-04-15T11:43:59.955Z,13.30
2023-04-15T11:46:32.781Z,13.30
2023-04-15T11:49:02.943Z,13.30
2023-04-15T11:51:36.191Z,13.30
2023-04-15T11:54:06.123Z,13.30
2023-04-15T11:56:35.932Z,13.20
2023-04-15T11:59:05.502Z,13.10
2023-04-15T12:01:36.421Z,13.10
2023-04-15T12:04:14.145Z,13.10
2023-04-15T12:06:43.748Z,13.10
2023-04-15T12:09:14.725Z,13.10
2023-04-15T12:11:53.677Z,13.20
2023-04-15T12:14:31.205Z,13.20
2023-04-15T12:17:02.917Z,13.20
2023-04-15T12:19:37.345Z,13.20
2023-04-15T12:22:12.893Z,13.30
2023-04-15T12:24:44.397Z,13.30
2023-04-15T12:27:15.201Z,13.30
2023-04-15T12:29:45.416Z,13.30
2023-04-15T12:32:16.520Z,13.30
2023-04-15T12:34:54.629Z,13.20
2023-04-15T12:37:24.080Z,13.30
2023-04-15T12:39:54.342Z,13.20
2023-04-15T12:42:23.929Z,13.20
2023-04-15T12:44:53.414Z,13.20
2023-04-15T12:47:22.832Z,13.20
2023-04-15T12:49:52.188Z,13.20
2023-04-15T12:52:21.986Z,13.20
2023-04-15T12:54:51.431Z,13.20
2023-04-15T12:57:21.094Z,13.20
2023-04-15T12:59:50.590Z,13.20
2023-04-15T13:02:21.314Z,13.20
2023-04-15T13:04:50.966Z,13.20
2023-04-15T13:07:20.487Z,13.30
2023-04-15T13:09:52.741Z,13.20
2023-04-15T13:12:22.211Z,13.20
2023-04-15T13:14:51.829Z,13.20
2023-04-15T13:17:22.117Z,13.10
2023-04-15T13:19:51.235Z,13.10
2023-04-15T13:22:21.693Z,13.10
2023-04-15T13:24:51.541Z,13.00
2023-04-15T13:27:21.496Z,13.10
2023-04-15T13:29:50.865Z,13.00
2023-04-15T13:32:20.306Z,13.10
2023-04-15T13:34:50.190Z,13.00
2023-04-15T13:37:19.670Z,13.00
2023-04-15T13:39:49.068Z,13.00
2023-04-15T13:42:18.485Z,13.00
2023-04-15T13:44:48.007Z,13.00
2023-04-15T13:47:17.577Z,13.00
2023-04-15T13:49:47.085Z,13.00
2023-04-15T13:52:16.721Z,13.00
2023-04-15T13:54:47.363Z,13.00
2023-04-15T13:57:18.817Z,12.90
2023-04-15T13:59:48.318Z,12.80
2023-04-15T14:02:17.934Z,12.80
2023-04-15T14:04:47.449Z,12.80
2023-04-15T14:07:17.062Z,12.70
2023-04-15T14:09:46.607Z,12.70
2023-04-15T14:12:17.092Z,12.70
2023-04-15T14:14:47.131Z,12.60
2023-04-15T14:17:16.755Z,12.60
2023-04-15T14:19:46.208Z,12.60
2023-04-15T14:22:15.878Z,12.50
2023-04-15T14:24:45.657Z,12.60
2023-04-15T14:27:15.381Z,12.50
2023-04-15T14:29:44.877Z,12.50
2023-04-15T14:32:15.683Z,12.50
2023-04-15T14:34:45.313Z,12.50
2023-04-15T14:37:14.914Z,12.40
2023-04-15T14:39:44.461Z,12.40
2023-04-15T14:42:13.977Z,12.40
2023-04-15T14:44:44.746Z,12.30
2023-04-15T14:47:14.248Z,12.30
2023-04-15T14:49:43.766Z,12.20
2023-04-15T14:52:13.703Z,12.20
2023-04-15T14:54:43.198Z,12.20
2023-04-15T14:57:12.659Z,12.20
2023-04-15T14:59:42.164Z,12.20
2023-04-15T15:02:12.982Z,12.20
2023-04-15T15:04:42.829Z,12.20
2023-04-15T15:07:12.413Z,12.20
2023-04-15T15:09:41.972Z,12.20
2023-04-15T15:12:11.808Z,12.20
2023-04-15T15:14:41.241Z,12.20
2023-04-15T15:17:11.340Z,12.20
2023-04-15T15:19:40.906Z,12.20
2023-04-15T15:22:10.414Z,12.20
2023-04-15T15:24:39.879Z,12.20
2023-04-15T15:27:09.404Z,12.20
2023-04-15T15:29:39.268Z,12.10
2023-04-15T15:32:08.745Z,12.10
2023-04-15T15:34:38.265Z,12.00
2023-04-15T15:37:07.812Z,12.00
2023-04-15T15:39:37.448Z,12.00
2023-04-15T15:42:08.838Z,12.00
2023-04-15T15:44:38.317Z,12.00
2023-04-15T15:47:07.644Z,12.00
2023-04-15T15:49:37.196Z,11.90
2023-04-15T15:52:06.819Z,11.90
2023-04-15T15:54:37.588Z,11.90
2023-04-15T15:57:07.229Z,11.90
2023-04-15T15:59:38.272Z,11.80
2023-04-15T16:02:09.403Z,11.80
2023-04-15T16:04:39.812Z,11.80
2023-04-15T16:07:10.649Z,11.80
2023-04-15T16:09:41.016Z,11.70
2023-04-15T16:12:09.676Z,11.80
2023-04-15T16:14:39.691Z,11.70
2023-04-15T16:17:09.063Z,11.70
2023-04-15T16:19:38.643Z,11.70
2023-04-15T16:22:08.078Z,11.70
2023-04-15T16:24:37.933Z,11.70
2023-04-15T16:27:07.392Z,11.70
2023-04-15T16:29:36.903Z,11.70
2023-04-15T16:32:07.008Z,11.70
2023-04-15T16:34:38.073Z,11.70
2023-04-15T16:37:07.621Z,11.70
2023-04-15T16:39:37.563Z,11.70
2023-04-15T16:42:07.384Z,11.60
2023-04-15T16:44:36.890Z,11.60
2023-04-15T16:47:06.436Z,11.60
2023-04-15T16:49:37.334Z,11.60
2023-04-15T16:52:07.056Z,11.60
2023-04-15T16:54:38.138Z,11.60
2023-04-15T16:57:07.990Z,11.60
2023-04-15T16:59:37.398Z,11.50
2023-04-15T17:02:07.702Z,11.50
2023-04-15T17:04:37.462Z,11.50
2023-04-15T17:07:08.894Z,11.50
2023-04-15T17:09:40.362Z,11.50
2023-04-15T17:12:09.959Z,11.50
2023-04-15T17:14:39.332Z,11.50
2023-04-15T17:17:09.717Z,11.50
2023-04-15T17:19:38.431Z,11.50
2023-04-15T17:22:08.150Z,11.50
2023-04-15T17:24:37.678Z,11.40
2023-04-15T17:27:07.101Z,11.40
2023-04-15T17:29:36.658Z,11.40
2023-04-15T17:32:06.287Z,11.40
2023-04-15T17:34:50.081Z,11.40
2023-04-15T17:37:06.774Z,11.40
2023-04-15T17:39:36.188Z,11.50
2023-04-15T17:42:05.629Z,11.40
2023-04-15T17:44:36.437Z,11.40
2023-04-15T17:47:06.299Z,11.40
2023-04-15T17:49:37.903Z,11.40
2023-04-15T17:52:07.582Z,11.40
2023-04-15T17:54:37.078Z,11.30
2023-04-15T17:57:06.665Z,11.30
2023-04-15T17:59:36.213Z,11.20
2023-04-15T18:02:05.937Z,11.20
2023-04-15T18:04:35.592Z,11.10
2023-04-15T18:07:06.611Z,11.00
2023-04-15T18:09:36.819Z,11.00
2023-04-15T18:12:08.087Z,11.00
2023-04-15T18:14:37.673Z,10.90
2023-04-15T18:17:07.896Z,10.90
2023-04-15T18:19:37.326Z,10.90
2023-04-15T18:22:07.081Z,10.80
2023-04-15T18:24:36.610Z,10.80
2023-04-15T18:27:06.195Z,10.80
2023-04-15T18:29:36.589Z,10.80
2023-04-15T18:32:05.348Z,10.70
2023-04-15T18:34:34.701Z,10.70
2023-04-15T18:37:05.250Z,10.80
2023-04-15T18:39:34.693Z,10.70
2023-04-15T18:42:04.572Z,10.70
2023-04-15T18:44:33.995Z,10.70
2023-04-15T18:47:03.570Z,10.70
2023-04-15T18:49:34.607Z,10.70
2023-04-15T18:52:04.182Z,10.70
2023-04-15T18:54:33.647Z,10.60
2023-04-15T18:57:04.034Z,10.60
2023-04-15T18:59:33.882Z,10.60
2023-04-15T19:02:05.123Z,10.60
2023-04-15T19:04:34.663Z,10.50
2023-04-15T19:07:04.639Z,10.50
2023-04-15T19:09:34.369Z,10.50
2023-04-15T19:12:04.266Z,10.50
2023-04-15T19:14:33.864Z,10.40
2023-04-15T19:17:03.715Z,10.40
2023-04-15T19:19:33.627Z,10.30
2023-04-15T19:22:03.368Z,10.30
2023-04-15T19:24:33.372Z,10.30
2023-04-15T19:27:02.960Z,10.30
2023-04-15T19:29:32.596Z,10.20
2023-04-15T19:32:02.167Z,10.20
2023-04-15T19:34:31.754Z,10.20
2023-04-15T19:37:01.301Z,10.10
2023-04-15T19:39:30.832Z,10.10
2023-04-15T19:42:00.508Z,10.10
2023-04-15T19:44:29.920Z,10.10
2023-04-15T19:46:59.617Z,10.10
2023-04-15T19:49:29.258Z,10.10
2023-04-15T19:51:58.740Z,10.00
2023-04-15T19:54:28.372Z,10.00
2023-04-15T19:56:57.833Z,9.90
2023-04-15T19:59:27.371Z,9.90
2023-04-15T20:01:56.988Z,9.90
2023-04-15T20:04:27.301Z,9.90
2023-04-15T20:06:56.034Z,9.90
2023-04-15T20:09:25.628Z,9.90
2023-04-15T20:12:09.283Z,9.80
2023-04-15T20:14:26.428Z,9.80
2023-04-15T20:16:56.158Z,9.80
2023-04-15T20:19:25.552Z,9.80
2023-04-15T20:21:55.089Z,9.80
2023-04-15T20:24:24.447Z,9.80
2023-04-15T20:26:53.920Z,9.80
2023-04-15T20:29:24.012Z,9.80
2023-04-15T20:31:53.544Z,9.80
2023-04-15T20:34:22.965Z,9.80
2023-04-15T20:36:52.452Z,9.90
2023-04-15T20:39:21.918Z,9.90
2023-04-15T20:41:51.404Z,9.90
2023-04-15T20:44:20.824Z,9.80
2023-04-15T20:46:50.608Z,9.80
2023-04-15T20:49:20.049Z,9.80
2023-04-15T20:51:50.293Z,9.80
2023-04-15T20:54:20.616Z,9.80
2023-04-15T20:56:50.037Z,9.80
2023-04-15T20:59:19.602Z,9.80
2023-04-15T21:01:49.082Z,9.80
2023-04-15T21:04:18.913Z,9.80
2023-04-15T21:06:58.491Z,9.80
2023-04-15T21:09:27.907Z,9.80
2023-04-15T21:12:01.529Z,9.70
2023-04-15T21:14:28.459Z,9.70
2023-04-15T21:16:58.743Z,9.60
2023-04-15T21:19:28.158Z,9.60
2023-04-15T21:21:57.591Z,9.60
2023-04-15T21:24:27.006Z,9.60
2023-04-15T21:26:57.242Z,9.60
2023-04-15T21:29:26.864Z,9.60
2023-04-15T21:31:56.497Z,9.50
2023-04-15T21:34:25.883Z,9.50
2023-04-15T21:36:55.497Z,9.50
2023-04-15T21:39:25.018Z,9.60
2023-04-15T21:41:54.636Z,9.60
2023-04-15T21:44:24.604Z,9.50
2023-04-15T21:46:54.188Z,9.50
2023-04-15T21:49:25.335Z,9.50
2023-04-15T21:51:55.015Z,9.50
2023-04-15T21:54:24.444Z,9.50
2023-04-15T21:56:53.862Z,9.50
2023-04-15T21:59:23.217Z,9.50
2023-04-15T22:01:52.784Z,9.50
2023-04-15T22:04:22.440Z,9.50
2023-04-15T22:06:52.286Z,9.50
2023-04-15T22:09:21.657Z,9.40
2023-04-15T22:11:51.075Z,9.40
2023-04-15T22:14:20.495Z,9.40
2023-04-15T22:16:50.027Z,9.40
2023-04-15T22:19:19.637Z,9.40
2023-04-15T22:21:50.227Z,9.40
2023-04-15T22:24:38.026Z,9.40
2023-04-15T22:26:50.798Z,9.40
2023-04-15T22:29:20.191Z,9.40
2023-04-15T22:31:49.761Z,9.40
2023-04-15T22:34:21.391Z,9.40
2023-04-15T22:36:52.205Z,9.30
2023-04-15T22:39:22.056Z,9.30
2023-04-15T22:41:51.672Z,9.30
2023-04-15T22:44:21.232Z,9.30
2023-04-15T22:46:52.294Z,9.30
2023-04-15T22:49:21.733Z,9.20
2023-04-15T22:51:51.160Z,9.20
2023-04-15T22:54:20.681Z,9.20
2023-04-15T22:56:50.141Z,9.30
2023-04-15T22:59:19.512Z,9.30
2023-04-15T23:01:49.237Z,9.30
2023-04-15T23:04:26.637Z,9.30
2023-04-15T23:06:50.690Z,9.20
2023-04-15T23:09:20.878Z,9.30
2023-04-15T23:11:50.466Z,9.30
2023-04-15T23:14:19.856Z,9.20
2023-04-15T23:16:49.271Z,9.20
2023-04-15T23:19:18.747Z,9.20
2023-04-15T23:21:48.339Z,9.20
2023-04-15T23:24:18.022Z,9.20
2023-04-15T23:26:47.406Z,9.20
2023-04-15T23:29:16.893Z,9.20
2023-04-15T23:31:46.369Z,9.20
2023-04-15T23:34:15.908Z,9.20
2023-04-15T23:36:46.921Z,9.20
2023-04-15T23:39:16.447Z,9.20
2023-04-15T23:41:45.846Z,9.10
2023-04-15T23:44:15.811Z,9.10
2023-04-15T23:46:45.237Z,9.10
2023-04-15T23:49:14.714Z,9.10
2023-04-15T23:51:44.740Z,9.10
2023-04-15T23:54:14.452Z,9.10
2023-04-15T23:56:43.828Z,9.00
2023-04-15T23:59:13.353Z,9.00
